sensor_id;sensor_type;location;lat;lon;timestamp;pressure;altitude;pressure_sealevel;temperature;humidity
63901;BME280;50538;53.482;10.294;2023-05-20T00:08:18;102296.16;;;11.35;57.49
63901;BME280;50538;53.482;10.294;2023-05-20T00:18:18;102288.97;;;11.25;57.79
63901;BME280;50538;53.482;10.294;2023-05-20T00:28:18;102285.28;;;11.17;58.34
63901;BME280;50538;53.482;10.294;2023-05-20T00:38:19;102293.09;;;11.09;58.67
63901;BME280;50538;53.482;10.294;2023-05-20T00:48:20;102288.44;;;11.01;58.73
63901;BME280;50538;53.482;10.294;2023-05-20T00:58:21;102286.16;;;10.97;58.90
63901;BME280;50538;53.482;10.294;2023-05-20T01:08:22;102277.13;;;10.88;59.07
63901;BME280;50538;53.482;10.294;2023-05-20T01:18:26;102273.88;;;10.84;59.28
63901;BME280;50538;53.482;10.294;2023-05-20T01:28:29;102278.75;;;10.79;58.71
63901;BME280;50538;53.482;10.294;2023-05-20T01:38:29;102274.31;;;10.69;60.25
63901;BME280;50538;53.482;10.294;2023-05-20T01:48:30;102260.84;;;10.60;60.28
63901;BME280;50538;53.482;10.294;2023-05-20T01:58:30;102272.94;;;10.53;60.75
63901;BME280;50538;53.482;10.294;2023-05-20T02:08:31;102267.44;;;10.45;60.93
63901;BME280;50538;53.482;10.294;2023-05-20T02:18:31;102264.34;;;10.40;61.49
63901;BME280;50538;53.482;10.294;2023-05-20T02:28:31;102259.28;;;10.37;61.36
63901;BME280;50538;53.482;10.294;2023-05-20T02:38:32;102255.19;;;10.33;61.12
63901;BME280;50538;53.482;10.294;2023-05-20T02:48:32;102251.09;;;10.29;61.78
63901;BME280;50538;53.482;10.294;2023-05-20T02:58:33;102256.91;;;10.23;63.13
63901;BME280;50538;53.482;10.294;2023-05-20T03:08:34;102259.34;;;10.15;63.34
63901;BME280;50538;53.482;10.294;2023-05-20T03:18:35;102266.13;;;10.08;65.36
63901;BME280;50538;53.482;10.294;2023-05-20T03:28:35;102266.50;;;10.03;65.63
63901;BME280;50538;53.482;10.294;2023-05-20T03:38:35;102265.91;;;10.00;66.12
63901;BME280;50538;53.482;10.294;2023-05-20T03:48:36;102265.06;;;9.99;66.20
63901;BME280;50538;53.482;10.294;2023-05-20T03:58:36;102253.22;;;10.03;68.78
63901;BME280;50538;53.482;10.294;2023-05-20T04:08:37;102269.50;;;10.10;68.04
63901;BME280;50538;53.482;10.294;2023-05-20T04:18:38;102264.53;;;10.16;68.49
63901;BME280;50538;53.482;10.294;2023-05-20T04:28:38;102270.91;;;10.25;69.81
63901;BME280;50538;53.482;10.294;2023-05-20T04:38:41;102271.34;;;10.41;70.41
63901;BME280;50538;53.482;10.294;2023-05-20T04:48:41;102272.56;;;10.58;70.47
63901;BME280;50538;53.482;10.294;2023-05-20T04:58:42;102272.25;;;10.72;73.07
63901;BME280;50538;53.482;10.294;2023-05-20T05:08:43;102269.28;;;10.86;71.42
63901;BME280;50538;53.482;10.294;2023-05-20T05:18:43;102267.16;;;11.01;72.99
63901;BME280;50538;53.482;10.294;2023-05-20T05:28:43;102273.28;;;11.22;68.74
63901;BME280;50538;53.482;10.294;2023-05-20T05:38:44;102269.66;;;11.54;71.16
63901;BME280;50538;53.482;10.294;2023-05-20T05:48:44;102264.97;;;11.86;73.04
63901;BME280;50538;53.482;10.294;2023-05-20T05:58:47;102261.66;;;12.23;71.16
63901;BME280;50538;53.482;10.294;2023-05-20T06:08:48;102262.78;;;12.69;68.69
63901;BME280;50538;53.482;10.294;2023-05-20T06:18:48;102251.84;;;13.28;70.32
63901;BME280;50538;53.482;10.294;2023-05-20T06:28:56;102238.91;;;13.88;67.83
63901;BME280;50538;53.482;10.294;2023-05-20T06:38:56;102231.81;;;14.50;66.85
63901;BME280;50538;53.482;10.294;2023-05-20T06:48:56;102245.06;;;14.85;64.54
63901;BME280;50538;53.482;10.294;2023-05-20T06:58:57;102241.19;;;15.32;62.80
63901;BME280;50538;53.482;10.294;2023-05-20T07:08:57;102232.34;;;15.89;61.42
63901;BME280;50538;53.482;10.294;2023-05-20T07:18:57;102228.06;;;16.53;59.83
63901;BME280;50538;53.482;10.294;2023-05-20T07:28:58;102222.25;;;17.13;57.57
63901;BME280;50538;53.482;10.294;2023-05-20T07:38:58;102214.13;;;17.77;56.32
63901;BME280;50538;53.482;10.294;2023-05-20T07:48:59;102202.38;;;18.46;54.72
63901;BME280;50538;53.482;10.294;2023-05-20T07:58:59;102200.19;;;18.94;52.93
63901;BME280;50538;53.482;10.294;2023-05-20T08:09:03;102192.28;;;19.52;50.74
63901;BME280;50538;53.482;10.294;2023-05-20T08:19:03;102187.72;;;19.52;49.76
63901;BME280;50538;53.482;10.294;2023-05-20T08:29:04;102188.91;;;19.86;49.06
63901;BME280;50538;53.482;10.294;2023-05-20T08:39:05;102171.97;;;19.70;52.75
63901;BME280;50538;53.482;10.294;2023-05-20T08:49:06;102168.16;;;19.14;48.95
63901;BME280;50538;53.482;10.294;2023-05-20T08:59:07;102167.31;;;19.43;50.10
63901;BME280;50538;53.482;10.294;2023-05-20T09:09:12;102160.28;;;19.84;49.01
63901;BME280;50538;53.482;10.294;2023-05-20T09:19:13;102165.09;;;20.10;47.30
63901;BME280;50538;53.482;10.294;2023-05-20T09:29:17;102145.47;;;19.74;49.17
63901;BME280;50538;53.482;10.294;2023-05-20T09:39:24;102156.19;;;19.31;49.17
63901;BME280;50538;53.482;10.294;2023-05-20T09:49:29;102138.78;;;19.48;49.73
63901;BME280;50538;53.482;10.294;2023-05-20T09:59:31;102145.75;;;19.43;48.53
63901;BME280;50538;53.482;10.294;2023-05-20T10:20:12;102109.78;;;19.93;49.79
63901;BME280;50538;53.482;10.294;2023-05-20T10:30:17;102115.34;;;20.13;49.53
63901;BME280;50538;53.482;10.294;2023-05-20T10:40:19;102099.50;;;19.82;50.51
63901;BME280;50538;53.482;10.294;2023-05-20T10:50:46;102102.41;;;19.80;50.34
63901;BME280;50538;53.482;10.294;2023-05-20T11:00:48;102094.91;;;19.55;49.37
63901;BME280;50538;53.482;10.294;2023-05-20T11:10:48;102086.41;;;19.22;49.93
63901;BME280;50538;53.482;10.294;2023-05-20T11:20:49;102084.09;;;19.33;50.39
63901;BME280;50538;53.482;10.294;2023-05-20T11:30:51;102085.28;;;19.45;49.16
63901;BME280;50538;53.482;10.294;2023-05-20T11:40:53;102083.25;;;19.33;50.76
63901;BME280;50538;53.482;10.294;2023-05-20T11:50:55;102078.53;;;19.20;51.64
63901;BME280;50538;53.482;10.294;2023-05-20T12:00:56;102075.16;;;18.97;52.08
63901;BME280;50538;53.482;10.294;2023-05-20T12:10:56;102067.47;;;19.30;52.03
63901;BME280;50538;53.482;10.294;2023-05-20T12:20:57;102052.69;;;19.40;51.16
63901;BME280;50538;53.482;10.294;2023-05-20T12:30:58;102046.53;;;19.46;50.56
63901;BME280;50538;53.482;10.294;2023-05-20T12:40:58;102056.22;;;19.26;51.87
63901;BME280;50538;53.482;10.294;2023-05-20T12:50:58;102036.72;;;19.39;51.51
63901;BME280;50538;53.482;10.294;2023-05-20T13:00:59;102032.63;;;19.43;51.19
63901;BME280;50538;53.482;10.294;2023-05-20T13:10:59;102014.34;;;19.38;50.87
63901;BME280;50538;53.482;10.294;2023-05-20T13:20:59;102009.00;;;19.45;51.17
63901;BME280;50538;53.482;10.294;2023-05-20T13:31:04;101999.47;;;19.42;50.93
63901;BME280;50538;53.482;10.294;2023-05-20T13:41:08;101978.66;;;19.58;50.38
63901;BME280;50538;53.482;10.294;2023-05-20T13:51:08;101969.22;;;19.68;51.16
63901;BME280;50538;53.482;10.294;2023-05-20T14:01:09;101963.63;;;19.70;51.79
63901;BME280;50538;53.482;10.294;2023-05-20T14:11:11;101960.38;;;19.53;52.04
63901;BME280;50538;53.482;10.294;2023-05-20T14:21:12;101946.72;;;19.55;52.15
63901;BME280;50538;53.482;10.294;2023-05-20T14:31:12;101919.19;;;19.59;52.31
63901;BME280;50538;53.482;10.294;2023-05-20T14:41:12;101918.13;;;19.54;52.77
63901;BME280;50538;53.482;10.294;2023-05-20T14:51:13;101905.22;;;19.49;53.11
63901;BME280;50538;53.482;10.294;2023-05-20T15:01:13;101884.06;;;19.80;52.69
63901;BME280;50538;53.482;10.294;2023-05-20T15:11:14;101872.16;;;20.03;52.16
63901;BME280;50538;53.482;10.294;2023-05-20T15:21:14;101878.69;;;19.80;52.82
63901;BME280;50538;53.482;10.294;2023-05-20T15:31:15;101868.13;;;19.86;52.86
63901;BME280;50538;53.482;10.294;2023-05-20T15:41:15;101857.34;;;19.86;53.24
63901;BME280;50538;53.482;10.294;2023-05-20T15:51:16;101855.22;;;19.68;54.27
63901;BME280;50538;53.482;10.294;2023-05-20T16:01:17;101849.06;;;19.46;54.78
63901;BME280;50538;53.482;10.294;2023-05-20T16:11:17;101848.63;;;19.21;55.63
63901;BME280;50538;53.482;10.294;2023-05-20T16:21:19;101850.84;;;19.11;55.92
63901;BME280;50538;53.482;10.294;2023-05-20T16:31:19;101837.47;;;18.96;56.53
63901;BME280;50538;53.482;10.294;2023-05-20T16:41:20;101831.25;;;18.74;57.14
63901;BME280;50538;53.482;10.294;2023-05-20T16:51:20;101819.88;;;18.51;57.73
63901;BME280;50538;53.482;10.294;2023-05-20T17:01:21;101833.53;;;18.35;58.61
63901;BME280;50538;53.482;10.294;2023-05-20T17:11:21;101833.75;;;18.18;58.54
63901;BME280;50538;53.482;10.294;2023-05-20T17:21:22;101832.31;;;18.01;60.05
63901;BME280;50538;53.482;10.294;2023-05-20T17:31:22;101822.41;;;17.87;59.88
63901;BME280;50538;53.482;10.294;2023-05-20T17:41:22;101806.56;;;17.77;61.18
63901;BME280;50538;53.482;10.294;2023-05-20T17:51:23;101805.84;;;17.69;61.17
63901;BME280;50538;53.482;10.294;2023-05-20T18:01:23;101806.31;;;17.58;61.02
63901;BME280;50538;53.482;10.294;2023-05-20T18:11:23;101804.53;;;17.50;61.27
63901;BME280;50538;53.482;10.294;2023-05-20T18:21:24;101803.66;;;17.43;62.67
63901;BME280;50538;53.482;10.294;2023-05-20T18:31:25;101797.53;;;17.34;61.31
63901;BME280;50538;53.482;10.294;2023-05-20T18:41:26;101799.13;;;17.20;62.63
63901;BME280;50538;53.482;10.294;2023-05-20T18:51:26;101815.38;;;17.04;63.02
63901;BME280;50538;53.482;10.294;2023-05-20T19:01:32;101814.25;;;16.84;64.04
63901;BME280;50538;53.482;10.294;2023-05-20T19:11:32;101820.28;;;16.63;64.61
63901;BME280;50538;53.482;10.294;2023-05-20T19:21:33;101824.59;;;16.41;65.47
63901;BME280;50538;53.482;10.294;2023-05-20T19:31:33;101828.91;;;16.19;66.65
63901;BME280;50538;53.482;10.294;2023-05-20T19:41:34;101834.69;;;16.00;66.91
63901;BME280;50538;53.482;10.294;2023-05-20T19:51:34;101832.91;;;15.84;67.57
63901;BME280;50538;53.482;10.294;2023-05-20T20:01:34;101833.66;;;15.70;68.57
63901;BME280;50538;53.482;10.294;2023-05-20T20:11:35;101826.81;;;15.60;68.10
63901;BME280;50538;53.482;10.294;2023-05-20T20:21:35;101827.00;;;15.50;69.60
63901;BME280;50538;53.482;10.294;2023-05-20T20:31:35;101817.50;;;15.39;69.31
63901;BME280;50538;53.482;10.294;2023-05-20T20:41:36;101816.84;;;15.29;70.06
63901;BME280;50538;53.482;10.294;2023-05-20T20:51:38;101825.41;;;15.16;70.15
63901;BME280;50538;53.482;10.294;2023-05-20T21:01:39;101820.88;;;15.01;70.33
63901;BME280;50538;53.482;10.294;2023-05-20T21:11:43;101815.38;;;14.86;70.23
63901;BME280;50538;53.482;10.294;2023-05-20T21:21:44;101801.66;;;14.73;70.06
63901;BME280;50538;53.482;10.294;2023-05-20T21:31:45;101801.47;;;14.58;70.97
63901;BME280;50538;53.482;10.294;2023-05-20T21:41:45;101795.66;;;14.46;72.11
63901;BME280;50538;53.482;10.294;2023-05-20T21:51:45;101780.59;;;14.37;72.02
63901;BME280;50538;53.482;10.294;2023-05-20T22:01:46;101770.06;;;14.28;71.02
63901;BME280;50538;53.482;10.294;2023-05-20T22:11:46;101767.53;;;14.18;70.46
63901;BME280;50538;53.482;10.294;2023-05-20T22:21:47;101759.50;;;14.10;71.21
63901;BME280;50538;53.482;10.294;2023-05-20T22:31:47;101759.66;;;14.00;71.46
63901;BME280;50538;53.482;10.294;2023-05-20T22:41:47;101741.78;;;13.93;70.50
63901;BME280;50538;53.482;10.294;2023-05-20T22:51:48;101731.91;;;13.85;70.72
63901;BME280;50538;53.482;10.294;2023-05-20T23:01:49;101719.19;;;13.79;71.41
63901;BME280;50538;53.482;10.294;2023-05-20T23:11:49;101706.66;;;13.71;71.25
63901;BME280;50538;53.482;10.294;2023-05-20T23:21:49;101694.97;;;13.64;70.23
63901;BME280;50538;53.482;10.294;2023-05-20T23:31:50;101699.09;;;13.58;70.09
63901;BME280;50538;53.482;10.294;2023-05-20T23:41:50;101684.22;;;13.48;70.46
63901;BME280;50538;53.482;10.294;2023-05-20T23:51:50;101681.88;;;13.37;70.46
